< < Back
Terminal Aerodrome Forecast


Current Version              Previous Versions:   1  2  3  4  5  6  7  8  9  

Terminal Aerodrome Forecast

962
FTUS44 KMOB 281751
TAFPNS
TAF
KPNS 281751Z 2818/2918 13008KT P6SM VCTS SCT040CB BKN080 BKN200
      TEMPO 2819/2823 2SM TSRA OVC025CB
     FM290300 14005KT P6SM SCT100 BKN250
     FM290600 10005KT P6SM SCT250=

Latest METAR

145
SAUS70 KWBC 282000 RRM
MTRPNS
METAR KPNS 281953Z 18008KT 10SM FEW018 FEW023 SCT038 27/22 A3009 RMK AO2
LTG DSNT NE AND S SLP191 T02720222


USA.gov is the U.S. government's official web portal to all federal, state and local government web resources and services.